createdAt,value
2022-12-13T00:01:47.233Z,6.40
2022-12-13T00:04:15.028Z,9.00
2022-12-13T00:06:42.244Z,9.43
2022-12-13T00:09:11.475Z,9.57
2022-12-13T00:11:38.502Z,12.37
2022-12-13T00:14:05.767Z,12.33
2022-12-13T00:16:32.871Z,16.37
2022-12-13T00:19:01.050Z,16.10
2022-12-13T00:21:31.057Z,12.60
2022-12-13T00:24:00.076Z,9.97
2022-12-13T00:26:30.731Z,8.80
2022-12-13T00:29:02.553Z,6.30
2022-12-13T00:34:21.412Z,6.60
2022-12-13T00:36:48.678Z,5.50
2022-12-13T00:39:16.868Z,5.50
2022-12-13T00:41:44.904Z,5.83
2022-12-13T00:44:13.504Z,6.90
2022-12-13T00:46:59.137Z,5.60
2022-12-13T00:49:26.383Z,5.93
2022-12-13T00:51:53.505Z,5.60
2022-12-13T00:54:20.733Z,6.33
2022-12-13T00:56:47.994Z,7.57
2022-12-13T00:59:33.683Z,7.70
2022-12-13T01:02:19.238Z,7.13
2022-12-13T01:04:46.473Z,7.03
2022-12-13T01:07:13.665Z,7.30
2022-12-13T01:09:42.448Z,8.17
2022-12-13T01:12:11.514Z,7.10
2022-12-13T01:14:41.677Z,7.40
2022-12-13T01:17:27.468Z,8.20
2022-12-13T01:19:54.736Z,7.23
2022-12-13T01:22:21.860Z,8.77
2022-12-13T01:24:49.021Z,6.70
2022-12-13T01:27:16.276Z,10.00
2022-12-13T01:29:43.339Z,8.33
2022-12-13T01:32:10.437Z,9.43
2022-12-13T01:34:47.620Z,10.77
2022-12-13T01:37:14.934Z,6.70
2022-12-13T01:39:42.009Z,7.20
2022-12-13T01:42:14.934Z,7.70
2022-12-13T01:45:02.981Z,5.30
2022-12-13T01:47:43.726Z,6.20
2022-12-13T01:50:21.362Z,6.63
2022-12-13T01:52:49.648Z,7.20
2022-12-13T01:55:20.224Z,6.17
2022-12-13T01:57:50.178Z,6.50
2022-12-13T02:00:18.111Z,5.20
2022-12-13T02:02:46.916Z,6.50
2022-12-13T02:05:19.664Z,4.83
2022-12-13T02:07:48.729Z,6.40
2022-12-13T02:10:15.982Z,5.53
2022-12-13T02:12:43.294Z,5.47
2022-12-13T02:15:14.877Z,6.53
2022-12-13T02:18:00.776Z,5.57
2022-12-13T02:20:56.035Z,4.80
2022-12-13T02:24:01.476Z,5.60
2022-12-13T02:26:55.385Z,5.20
2022-12-13T02:29:40.688Z,5.67
2022-12-13T02:32:24.661Z,6.17
2022-12-13T02:35:17.772Z,7.33
2022-12-13T02:37:48.162Z,9.20
2022-12-13T02:40:30.468Z,9.93
2022-12-13T02:43:26.661Z,9.57
2022-12-13T02:46:03.111Z,6.50
2022-12-13T02:48:35.032Z,6.30
2022-12-13T02:51:07.014Z,5.50
2022-12-13T02:53:35.992Z,5.70
2022-12-13T02:56:03.131Z,5.67
2022-12-13T02:58:35.622Z,7.03
2022-12-13T03:01:28.480Z,5.90
2022-12-13T03:04:21.035Z,6.50
2022-12-13T03:07:07.275Z,6.73
2022-12-13T03:09:46.872Z,8.87
2022-12-13T03:12:46.657Z,9.50
2022-12-13T03:15:41.588Z,7.77
2022-12-13T03:18:30.654Z,7.83
2022-12-13T03:21:04.796Z,5.17
2022-12-13T03:23:32.417Z,6.83
2022-12-13T03:26:13.740Z,7.00
2022-12-13T03:28:41.262Z,6.27
2022-12-13T03:31:09.330Z,5.87
2022-12-13T03:33:36.764Z,5.77
2022-12-13T03:36:04.773Z,6.10
2022-12-13T03:38:32.338Z,6.70
2022-12-13T03:41:03.547Z,6.27
2022-12-13T03:43:31.070Z,11.70
2022-12-13T03:45:58.443Z,15.97
2022-12-13T03:48:25.910Z,11.30
2022-12-13T03:50:54.536Z,14.97
2022-12-13T03:53:40.740Z,16.80
2022-12-13T03:56:08.265Z,17.97
2022-12-13T03:58:47.441Z,16.43
2022-12-13T04:01:16.885Z,12.73
2022-12-13T04:03:45.979Z,13.67
2022-12-13T04:06:22.489Z,10.13
2022-12-13T04:08:52.277Z,11.40
2022-12-13T04:11:56.466Z,13.70
2022-12-13T04:14:23.776Z,10.83
2022-12-13T04:16:54.083Z,9.93
2022-12-13T04:19:23.119Z,8.20
2022-12-13T04:21:54.675Z,6.73
2022-12-13T04:24:31.006Z,5.77
2022-12-13T04:27:17.618Z,6.00
2022-12-13T04:29:44.753Z,5.50
2022-12-13T04:32:26.441Z,5.37
2022-12-13T04:35:01.233Z,5.60
2022-12-13T04:37:47.041Z,4.83
2022-12-13T04:40:14.389Z,6.03
2022-12-13T04:42:53.777Z,5.57
2022-12-13T04:45:23.070Z,5.10
2022-12-13T04:47:50.310Z,4.67
2022-12-13T04:50:17.660Z,5.13
2022-12-13T04:52:57.815Z,5.17
2022-12-13T04:55:25.245Z,4.63
2022-12-13T04:58:10.939Z,4.70
2022-12-13T05:00:40.569Z,5.20
2022-12-13T05:03:11.969Z,3.93
2022-12-13T05:05:40.874Z,4.17
2022-12-13T05:08:08.312Z,4.63
2022-12-13T05:10:37.946Z,4.20
2022-12-13T05:13:05.871Z,4.90
2022-12-13T05:15:33.661Z,4.90
2022-12-13T05:18:09.716Z,3.80
2022-12-13T05:20:38.626Z,3.97
2022-12-13T05:23:05.780Z,4.43
2022-12-13T05:25:33.224Z,4.67
2022-12-13T05:28:00.490Z,3.87
2022-12-13T05:30:43.380Z,4.47
2022-12-13T05:33:11.083Z,4.60
2022-12-13T05:35:38.609Z,5.83
2022-12-13T05:38:06.749Z,5.13
2022-12-13T05:40:36.083Z,7.87
2022-12-13T05:43:03.263Z,4.43
2022-12-13T05:45:31.887Z,4.97
2022-12-13T05:47:59.769Z,5.70
2022-12-13T05:50:27.017Z,4.90
2022-12-13T05:52:56.329Z,4.63
2022-12-13T05:55:23.586Z,5.53
2022-12-13T05:57:51.202Z,4.97
2022-12-13T06:00:29.681Z,5.07
2022-12-13T06:03:01.136Z,3.90
2022-12-13T06:05:32.204Z,4.90
2022-12-13T06:07:59.623Z,3.67
2022-12-13T06:10:34.142Z,4.97
2022-12-13T06:13:20.881Z,3.60
2022-12-13T06:15:52.029Z,4.93
2022-12-13T06:18:29.913Z,4.83
2022-12-13T06:20:58.873Z,4.83
2022-12-13T06:23:37.088Z,4.17
2022-12-13T06:26:06.138Z,5.27
2022-12-13T06:28:33.367Z,3.73
2022-12-13T06:31:02.105Z,4.60
2022-12-13T06:33:29.925Z,5.73
2022-12-13T06:35:58.355Z,4.43
2022-12-13T06:38:31.951Z,4.13
2022-12-13T06:41:18.020Z,3.97
2022-12-13T06:43:46.435Z,5.10
2022-12-13T06:46:14.586Z,5.00
2022-12-13T06:49:01.492Z,5.87
2022-12-13T06:51:32.949Z,4.10
2022-12-13T06:54:02.348Z,4.37
2022-12-13T06:56:30.227Z,3.70
2022-12-13T06:59:12.415Z,4.00
2022-12-13T07:01:39.528Z,4.13
2022-12-13T07:04:28.815Z,4.80
2022-12-13T07:06:56.273Z,6.03
2022-12-13T07:09:32.998Z,4.40
2022-12-13T07:12:00.403Z,4.67
2022-12-13T07:14:27.726Z,3.43
2022-12-13T07:17:03.459Z,3.87
2022-12-13T07:19:35.582Z,4.80
2022-12-13T07:22:09.496Z,4.00
2022-12-13T07:24:36.915Z,4.60
2022-12-13T07:27:04.472Z,4.90
2022-12-13T07:29:31.746Z,5.40
2022-12-13T07:32:00.988Z,7.00
2022-12-13T07:34:30.283Z,5.73
2022-12-13T07:36:57.771Z,8.13
2022-12-13T07:39:28.491Z,7.67
2022-12-13T07:41:56.271Z,7.73
2022-12-13T07:44:24.554Z,14.27
2022-12-13T07:46:51.930Z,18.10
2022-12-13T07:49:19.629Z,13.53
2022-12-13T07:51:47.220Z,14.77
2022-12-13T07:54:14.398Z,10.73
2022-12-13T07:56:41.669Z,9.67
2022-12-13T07:59:28.281Z,9.17
2022-12-13T08:01:56.177Z,9.60
2022-12-13T08:04:23.427Z,8.47
2022-12-13T08:06:50.655Z,8.87
2022-12-13T08:09:17.858Z,9.63
2022-12-13T08:11:44.932Z,9.80
2022-12-13T08:14:12.225Z,10.83
2022-12-13T08:16:39.434Z,15.63
2022-12-13T08:19:06.691Z,14.03
2022-12-13T08:21:56.792Z,17.13
2022-12-13T08:24:28.002Z,15.50
2022-12-13T08:27:00.919Z,13.50
2022-12-13T08:29:34.288Z,16.03
2022-12-13T08:32:08.345Z,13.60
2022-12-13T08:34:35.601Z,13.60
2022-12-13T08:37:04.188Z,14.47
2022-12-13T08:39:35.442Z,17.73
2022-12-13T08:42:15.365Z,14.53
2022-12-13T08:44:50.272Z,14.80
2022-12-13T08:47:26.964Z,13.40
2022-12-13T08:50:13.016Z,14.57
2022-12-13T08:52:42.428Z,18.53
2022-12-13T08:55:14.231Z,18.57
2022-12-13T08:57:43.438Z,16.70
2022-12-13T09:00:14.799Z,13.20
2022-12-13T09:02:42.211Z,18.60
2022-12-13T09:05:34.333Z,16.77
2022-12-13T09:08:04.308Z,17.03
2022-12-13T09:11:21.506Z,21.43
2022-12-13T09:14:14.061Z,18.77
2022-12-13T09:16:41.542Z,15.67
2022-12-13T09:19:25.133Z,13.83
2022-12-13T09:22:02.139Z,13.70
2022-12-13T09:24:35.759Z,17.33
2022-12-13T09:27:09.724Z,15.27
2022-12-13T09:29:38.721Z,15.23
2022-12-13T09:32:06.212Z,12.77
2022-12-13T09:34:51.570Z,16.37
2022-12-13T09:37:23.003Z,15.27
2022-12-13T09:39:54.843Z,14.70
2022-12-13T09:42:30.523Z,13.53
2022-12-13T09:45:03.780Z,13.97
2022-12-13T09:47:51.623Z,17.87
2022-12-13T09:50:38.202Z,11.77
2022-12-13T09:53:12.028Z,12.90
2022-12-13T09:55:52.567Z,13.57
2022-12-13T09:58:30.351Z,12.00
2022-12-13T10:01:22.591Z,15.60
2022-12-13T10:04:00.709Z,12.13
2022-12-13T10:06:31.691Z,13.77
2022-12-13T10:09:00.764Z,12.27
2022-12-13T10:11:52.151Z,10.40
2022-12-13T10:14:30.010Z,11.07
2022-12-13T10:17:02.435Z,9.60
2022-12-13T10:19:39.822Z,11.60
2022-12-13T10:22:13.238Z,11.50
2022-12-13T10:25:06.460Z,11.60
2022-12-13T10:27:40.495Z,12.67
2022-12-13T10:30:10.970Z,11.57
2022-12-13T10:32:47.255Z,10.27
2022-12-13T10:35:44.461Z,10.67
2022-12-13T10:38:14.754Z,11.20
2022-12-13T10:40:55.269Z,11.97
2022-12-13T10:43:24.772Z,11.77
2022-12-13T10:45:58.659Z,11.73
2022-12-13T10:48:38.723Z,12.13
2022-12-13T10:51:12.738Z,11.93
2022-12-13T10:53:55.501Z,10.80
2022-12-13T10:56:33.111Z,10.77
2022-12-13T10:59:22.782Z,14.30
2022-12-13T11:01:50.151Z,10.13
2022-12-13T11:04:31.651Z,8.87
2022-12-13T11:07:23.343Z,8.37
2022-12-13T11:09:52.461Z,9.87
2022-12-13T11:12:27.496Z,10.60
2022-12-13T11:15:06.692Z,10.03
2022-12-13T11:17:50.224Z,10.37
2022-12-13T11:20:21.215Z,12.67
2022-12-13T11:22:50.703Z,11.67
2022-12-13T11:25:31.461Z,9.53
2022-12-13T11:28:28.034Z,11.27
2022-12-13T11:31:24.025Z,12.20
2022-12-13T11:34:17.879Z,11.37
2022-12-13T11:36:58.283Z,11.90
2022-12-13T11:39:32.586Z,11.90
2022-12-13T11:42:27.449Z,12.83
2022-12-13T11:45:22.595Z,12.73
2022-12-13T11:48:19.826Z,11.57
2022-12-13T11:50:50.110Z,11.80
2022-12-13T11:53:56.347Z,13.30
2022-12-13T11:56:31.742Z,11.43
2022-12-13T11:59:43.463Z,14.67
2022-12-13T12:02:39.152Z,13.60
2022-12-13T12:05:25.333Z,12.03
2022-12-13T12:08:31.978Z,12.00
2022-12-13T12:10:51.360Z,11.77
2022-12-13T12:14:04.370Z,11.50
2022-12-13T12:16:51.502Z,12.80
2022-12-13T12:19:23.774Z,10.73
2022-12-13T12:22:14.268Z,10.47
2022-12-13T12:24:49.296Z,12.27
2022-12-13T12:27:41.237Z,11.33
2022-12-13T12:34:07.232Z,10.63
2022-12-13T12:36:50.823Z,10.93
2022-12-13T12:39:20.920Z,10.23
2022-12-13T12:42:02.530Z,10.77
2022-12-13T12:45:00.941Z,9.40
2022-12-13T12:48:45.372Z,9.73
2022-12-13T12:51:24.173Z,10.97
2022-12-13T12:54:08.389Z,9.80
2022-12-13T12:56:46.165Z,9.73
2022-12-13T12:59:36.909Z,10.63
2022-12-13T13:02:21.021Z,8.03
2022-12-13T13:04:55.924Z,10.00
2022-12-13T13:07:40.638Z,8.10
2022-12-13T13:10:16.625Z,8.80
2022-12-13T13:13:12.514Z,7.90
2022-12-13T13:15:40.344Z,10.93
2022-12-13T13:18:47.059Z,9.17
2022-12-13T13:21:23.154Z,9.77
2022-12-13T13:24:06.960Z,9.87
2022-12-13T13:26:37.782Z,10.40
2022-12-13T13:29:27.961Z,9.13
2022-12-13T13:32:28.507Z,9.70
2022-12-13T13:35:33.419Z,10.33
2022-12-13T13:38:05.478Z,11.03
2022-12-13T13:40:35.066Z,10.70
2022-12-13T13:43:08.778Z,11.30
2022-12-13T13:45:51.360Z,10.73
2022-12-13T13:48:45.951Z,10.23
2022-12-13T13:51:31.300Z,11.90
2022-12-13T13:54:14.216Z,12.87
2022-12-13T13:56:50.369Z,13.67
2022-12-13T14:00:02.304Z,14.63
2022-12-13T14:02:54.399Z,12.80
2022-12-13T14:05:22.682Z,19.50
2022-12-13T14:08:20.933Z,15.93
2022-12-13T14:11:01.339Z,16.17
2022-12-13T14:13:44.868Z,18.13
2022-12-13T14:16:54.355Z,20.03
2022-12-13T14:19:40.182Z,24.30
2022-12-13T14:22:28.985Z,19.27
2022-12-13T14:25:23.919Z,14.93
2022-12-13T14:27:59.841Z,16.13
2022-12-13T14:30:29.231Z,14.97
2022-12-13T14:32:57.801Z,13.77
2022-12-13T14:35:27.360Z,17.37
2022-12-13T14:38:06.598Z,18.57
2022-12-13T14:40:36.269Z,20.47
2022-12-13T14:43:03.751Z,18.17
2022-12-13T14:45:43.442Z,16.70
2022-12-13T14:48:15.246Z,18.60
2022-12-13T14:50:46.175Z,15.67
2022-12-13T14:53:34.167Z,15.30
2022-12-13T14:56:28.389Z,15.70
2022-12-13T14:59:01.909Z,14.27
2022-12-13T15:01:35.474Z,22.47
2022-12-13T15:04:21.465Z,13.93
2022-12-13T15:07:17.757Z,13.43
2022-12-13T15:09:46.635Z,13.83
2022-12-13T15:12:26.348Z,16.50
2022-12-13T15:15:00.120Z,12.93
2022-12-13T15:17:32.168Z,13.83
2022-12-13T15:20:23.703Z,11.90
2022-12-13T15:23:00.060Z,10.60
2022-12-13T15:25:27.856Z,13.03
2022-12-13T15:27:56.100Z,12.17
2022-12-13T15:30:30.606Z,12.33
2022-12-13T15:33:23.529Z,12.57
2022-12-13T15:36:17.060Z,12.83
2022-12-13T15:38:55.351Z,11.17
2022-12-13T15:41:34.048Z,12.03
2022-12-13T15:44:06.467Z,11.27
2022-12-13T15:46:38.109Z,14.93
2022-12-13T15:49:18.057Z,12.93
2022-12-13T15:52:04.263Z,16.63
2022-12-13T15:54:32.906Z,18.70
2022-12-13T15:57:25.828Z,11.97
2022-12-13T16:00:19.911Z,14.80
2022-12-13T16:02:58.636Z,20.77
2022-12-13T16:05:35.040Z,21.27
2022-12-13T16:08:14.150Z,31.50
2022-12-13T16:10:50.037Z,24.07
2022-12-13T16:13:25.715Z,23.90
2022-12-13T16:16:09.477Z,22.60
2022-12-13T16:19:17.715Z,20.80
2022-12-13T16:21:45.265Z,18.63
2022-12-13T16:24:12.409Z,17.40
2022-12-13T16:26:44.317Z,16.83
2022-12-13T16:29:14.281Z,20.67
2022-12-13T16:31:41.427Z,18.23
2022-12-13T16:34:08.643Z,17.77
2022-12-13T16:36:36.192Z,16.63
2022-12-13T16:39:05.789Z,22.53
2022-12-13T16:41:38.483Z,19.10
2022-12-13T16:44:08.421Z,20.50
2022-12-13T16:47:12.237Z,19.03
2022-12-13T16:49:28.359Z,15.37
2022-12-13T16:51:56.951Z,13.60
2022-12-13T16:54:25.882Z,12.83
2022-12-13T16:56:54.133Z,10.57
2022-12-13T16:59:28.091Z,11.10
2022-12-13T17:01:55.321Z,17.13
2022-12-13T17:04:24.382Z,14.70
2022-12-13T17:06:54.664Z,12.83
2022-12-13T17:09:24.981Z,13.70
2022-12-13T17:11:52.404Z,12.97
2022-12-13T17:14:19.462Z,11.90
2022-12-13T17:16:47.927Z,13.17
2022-12-13T17:19:15.758Z,21.53
2022-12-13T17:21:43.306Z,25.40
2022-12-13T17:24:10.393Z,16.37
2022-12-13T17:26:37.489Z,17.43
2022-12-13T17:29:04.767Z,15.03
2022-12-13T17:31:35.853Z,13.93
2022-12-13T17:34:04.507Z,14.80
2022-12-13T17:36:31.916Z,15.90
2022-12-13T17:38:59.375Z,19.10
2022-12-13T17:41:26.537Z,19.87
2022-12-13T17:43:57.621Z,21.53
2022-12-13T17:46:25.279Z,28.17
2022-12-13T17:48:52.453Z,26.03
2022-12-13T17:51:19.662Z,25.67
2022-12-13T17:53:46.721Z,23.97
2022-12-13T17:56:16.181Z,33.07
2022-12-13T17:58:57.315Z,26.30
2022-12-13T18:01:25.553Z,24.30
2022-12-13T18:03:55.613Z,20.73
2022-12-13T18:06:23.982Z,21.67
2022-12-13T18:08:51.193Z,20.60
2022-12-13T18:11:35.373Z,18.80
2022-12-13T18:14:04.806Z,21.23
2022-12-13T18:16:38.337Z,19.73
2022-12-13T18:19:08.535Z,19.77
2022-12-13T18:21:36.803Z,20.30
2022-12-13T18:24:06.103Z,19.50
2022-12-13T18:26:33.773Z,20.70
2022-12-13T18:29:04.842Z,22.43
2022-12-13T18:31:32.513Z,21.87
2022-12-13T18:34:00.284Z,20.50
2022-12-13T18:36:27.722Z,23.67
2022-12-13T18:38:54.964Z,24.53
2022-12-13T18:41:24.328Z,27.20
2022-12-13T18:44:00.328Z,25.20
2022-12-13T18:46:29.660Z,27.73
2022-12-13T18:48:57.885Z,27.80
2022-12-13T18:51:26.360Z,24.57
2022-12-13T18:53:54.608Z,20.07
2022-12-13T18:56:22.401Z,18.00
2022-12-13T18:59:02.952Z,26.93
2022-12-13T19:01:30.949Z,25.47
2022-12-13T19:03:59.424Z,25.50
2022-12-13T19:06:28.039Z,23.60
2022-12-13T19:08:57.193Z,24.83
2022-12-13T19:11:26.570Z,25.47
2022-12-13T19:13:54.381Z,20.50
2022-12-13T19:16:23.277Z,20.73
2022-12-13T19:18:50.970Z,16.67
2022-12-13T19:21:20.869Z,15.43
2022-12-13T19:23:54.909Z,13.30
2022-12-13T19:26:25.222Z,13.17
2022-12-13T19:28:53.018Z,16.93
2022-12-13T19:31:23.068Z,21.90
2022-12-13T19:33:56.981Z,20.47
2022-12-13T19:36:24.965Z,17.93
2022-12-13T19:38:53.051Z,19.67
2022-12-13T19:41:20.320Z,18.57
2022-12-13T19:43:53.587Z,21.80
2022-12-13T19:46:22.196Z,21.37
2022-12-13T19:48:49.922Z,21.93
2022-12-13T19:51:18.297Z,24.23
2022-12-13T19:53:46.863Z,79.90
2022-12-13T19:56:17.913Z,36.93
2022-12-13T19:58:54.311Z,36.43
2022-12-13T20:01:21.947Z,42.07
2022-12-13T20:03:51.255Z,33.33
2022-12-13T20:06:22.350Z,30.50
2022-12-13T20:08:51.043Z,23.40
2022-12-13T20:11:22.249Z,23.47
2022-12-13T20:13:53.337Z,21.80
2022-12-13T20:16:24.340Z,21.03
2022-12-13T20:18:56.515Z,23.67
2022-12-13T20:21:24.223Z,22.27
2022-12-13T20:23:51.802Z,21.10
2022-12-13T20:26:26.830Z,23.73
2022-12-13T20:28:54.599Z,27.17
2022-12-13T20:31:25.027Z,21.43
2022-12-13T20:33:57.513Z,21.90
2022-12-13T20:36:27.836Z,21.70
2022-12-13T20:38:57.030Z,22.07
2022-12-13T20:41:26.317Z,22.83
2022-12-13T20:43:58.547Z,21.77
2022-12-13T20:46:27.500Z,25.17
2022-12-13T20:48:56.286Z,24.00
2022-12-13T20:51:26.541Z,23.20
2022-12-13T20:53:55.298Z,20.53
2022-12-13T20:56:25.697Z,26.13
2022-12-13T20:58:53.289Z,20.37
2022-12-13T21:01:30.502Z,23.83
2022-12-13T21:04:01.098Z,24.53
2022-12-13T21:06:30.131Z,22.83
2022-12-13T21:09:02.806Z,23.50
2022-12-13T21:11:32.633Z,25.13
2022-12-13T21:14:11.194Z,27.07
2022-12-13T21:16:48.320Z,25.20
2022-12-13T21:19:37.548Z,23.03
2022-12-13T21:22:07.672Z,22.97
2022-12-13T21:25:06.381Z,21.83
2022-12-13T21:27:33.661Z,22.17
2022-12-13T21:30:00.877Z,19.63
2022-12-13T21:32:28.205Z,20.70
2022-12-13T21:34:56.833Z,24.43
2022-12-13T21:37:24.333Z,29.97
2022-12-13T21:39:59.043Z,22.87
2022-12-13T21:42:26.110Z,29.40
2022-12-13T21:44:55.451Z,32.90
2022-12-13T21:47:26.088Z,25.57
2022-12-13T21:49:53.241Z,30.73
2022-12-13T21:52:20.320Z,25.37
2022-12-13T21:54:47.543Z,32.60
2022-12-13T21:57:50.025Z,26.57
2022-12-13T22:00:17.074Z,30.43
2022-12-13T22:02:44.455Z,33.50
2022-12-13T22:05:11.536Z,29.33
2022-12-13T22:07:38.671Z,30.47
2022-12-13T22:10:07.159Z,33.50
2022-12-13T22:12:40.044Z,30.03
2022-12-13T22:15:17.278Z,26.50
2022-12-13T22:17:44.554Z,26.83
2022-12-13T22:20:13.800Z,26.27
2022-12-13T22:22:59.723Z,26.50
2022-12-13T22:25:26.775Z,23.27
2022-12-13T22:27:53.870Z,25.73
2022-12-13T22:30:20.883Z,25.77
2022-12-13T22:32:47.953Z,19.63
2022-12-13T22:35:15.266Z,19.50
2022-12-13T22:37:42.410Z,22.57
2022-12-13T22:40:10.405Z,21.17
2022-12-13T22:42:37.416Z,21.57
2022-12-13T22:45:06.049Z,23.30
2022-12-13T22:47:33.419Z,22.10
2022-12-13T22:50:00.799Z,23.43
2022-12-13T22:52:33.529Z,23.50
2022-12-13T22:55:01.127Z,23.60
2022-12-13T22:57:28.376Z,30.83
2022-12-13T22:59:55.447Z,24.60
2022-12-13T23:02:22.675Z,25.60
2022-12-13T23:05:08.578Z,26.40
2022-12-13T23:07:36.449Z,27.90
2022-12-13T23:10:03.707Z,27.00
2022-12-13T23:12:49.603Z,25.00
2022-12-13T23:15:16.697Z,24.57
2022-12-13T23:17:43.758Z,25.93
2022-12-13T23:20:11.312Z,25.73
2022-12-13T23:22:38.562Z,25.87
2022-12-13T23:25:06.435Z,23.93
2022-12-13T23:27:33.692Z,25.53
2022-12-13T23:30:00.823Z,26.00
2022-12-13T23:32:27.987Z,28.03
2022-12-13T23:35:13.648Z,25.43
2022-12-13T23:37:40.762Z,26.63
2022-12-13T23:40:08.700Z,23.57
2022-12-13T23:42:35.763Z,20.80
2022-12-13T23:45:02.921Z,20.57
2022-12-13T23:47:30.126Z,18.97
2022-12-13T23:49:57.160Z,18.73
2022-12-13T23:52:28.523Z,21.20
2022-12-13T23:54:55.769Z,18.93
2022-12-13T23:57:23.327Z,18.03
2022-12-13T23:59:50.379Z,21.00
